Time;durP1;ratioP1;P1;durP2;ratioP2;P2;SDS_P1;SDS_P2;PMS_P1;PMS_P2;Temp;Humidity;BMP_temperature;BMP_pressure;BME280_temperature;BME280_humidity;BME280_pressure;Samples;Min_cycle;Max_cycle;Signal;HPM_P1;HPM_P2
2023/12/09 00:02:08;;;;;;;;;;;21.50;33.20;;;;;;5035911;28;19955;-52
2023/12/09 00:04:35;;;;;;;;;;;21.50;33.20;;;;;;5035676;28;19995;-54
2023/12/09 00:07:02;;;;;;;;;;;21.50;33.20;;;;;;5035297;28;20020;-51
2023/12/09 00:09:29;;;;;;;;;;;21.50;33.20;;;;;;5035333;28;19925;-53
2023/12/09 00:11:56;;;;;;;;;;;21.50;33.20;;;;;;5035419;28;19971;-54
2023/12/09 00:14:23;;;;;;;;;;;21.50;33.20;;;;;;5035177;28;19940;-50
2023/12/09 00:16:53;;;;;;;;;;;21.50;33.70;;;;;;5034985;28;19936;-54
2023/12/09 00:19:20;;;;;;;;;;;21.50;33.20;;;;;;5034972;28;19925;-49
2023/12/09 00:21:47;;;;;;;;;;;21.50;33.20;;;;;;5034939;28;20057;-47
2023/12/09 00:24:14;;;;;;;;;;;21.50;33.20;;;;;;5034934;28;20293;-47
2023/12/09 00:26:41;;;;;;;;;;;21.50;33.20;;;;;;5034900;28;19929;-47
2023/12/09 00:29:08;;;;;;;;;;;21.40;33.10;;;;;;5035319;28;20012;-51
2023/12/09 00:31:35;;;;;;;;;;;21.50;33.20;;;;;;5034510;28;19987;-53
2023/12/09 00:34:02;;;;;;;;;;;21.40;33.10;;;;;;5034337;28;20488;-48
2023/12/09 00:36:29;;;;;;;;;;;21.40;33.10;;;;;;5035155;28;19929;-54
2023/12/09 00:38:56;;;;;;;;;;;21.40;33.10;;;;;;5034385;28;19925;-50
2023/12/09 00:41:24;;;;;;;;;;;21.40;33.10;;;;;;5034523;28;19937;-49
2023/12/09 00:43:51;;;;;;;;;;;21.40;33.10;;;;;;5034825;28;19932;-53
2023/12/09 00:46:18;;;;;;;;;;;21.40;33.70;;;;;;5034844;28;19925;-52
2023/12/09 00:48:45;;;;;;;;;;;21.40;33.10;;;;;;5034615;28;19931;-51
2023/12/09 00:51:13;;;;;;;;;;;21.40;33.10;;;;;;5034511;28;19925;-48
2023/12/09 00:53:40;;;;;;;;;;;21.40;33.00;;;;;;5034429;28;19929;-47
2023/12/09 00:56:07;;;;;;;;;;;21.40;33.00;;;;;;5034544;28;19972;-47
2023/12/09 00:58:34;;;;;;;;;;;21.40;33.00;;;;;;5034466;28;20425;-48
2023/12/09 01:01:01;;;;;;;;;;;21.40;33.00;;;;;;5034685;28;19925;-47
2023/12/09 01:03:28;;;;;;;;;;;21.40;33.00;;;;;;5034526;28;19932;-51
2023/12/09 01:05:56;;;;;;;;;;;21.40;33.00;;;;;;5034551;28;20296;-48
2023/12/09 01:08:25;;;;;;;;;;;21.40;33.00;;;;;;5034115;28;19972;-52
2023/12/09 01:10:53;;;;;;;;;;;21.40;33.00;;;;;;5034482;28;19925;-47
2023/12/09 01:13:20;;;;;;;;;;;21.40;33.00;;;;;;5016706;28;19936;-47
2023/12/09 01:15:47;;;;;;;;;;;21.40;33.00;;;;;;5033939;28;20405;-49
2023/12/09 01:18:14;;;;;;;;;;;21.40;33.00;;;;;;5033639;28;19968;-50
2023/12/09 01:20:41;;;;;;;;;;;21.40;33.00;;;;;;5034185;28;19925;-46
2023/12/09 01:23:08;;;;;;;;;;;21.40;33.00;;;;;;5033524;28;20011;-49
2023/12/09 01:25:35;;;;;;;;;;;21.30;33.00;;;;;;5016583;28;19925;-48
2023/12/09 01:28:02;;;;;;;;;;;21.40;33.00;;;;;;5034166;28;19951;-46
2023/12/09 01:30:29;;;;;;;;;;;21.40;33.60;;;;;;5034126;28;19925;-48
2023/12/09 01:32:56;;;;;;;;;;;21.40;33.00;;;;;;5033785;28;19947;-46
2023/12/09 01:35:23;;;;;;;;;;;21.30;33.00;;;;;;5033876;28;19929;-48
2023/12/09 01:37:50;;;;;;;;;;;21.30;32.90;;;;;;5033487;28;19972;-48
2023/12/09 01:40:17;;;;;;;;;;;21.30;32.90;;;;;;5033500;28;19925;-51
2023/12/09 01:42:44;;;;;;;;;;;21.30;32.90;;;;;;5033363;28;19929;-48
2023/12/09 01:45:11;;;;;;;;;;;21.30;32.90;;;;;;5033567;28;19931;-53
2023/12/09 01:47:39;;;;;;;;;;;21.30;32.90;;;;;;5033328;28;20375;-51
2023/12/09 01:50:08;;;;;;;;;;;21.30;32.90;;;;;;5033175;28;20218;-52
2023/12/09 01:52:36;;;;;;;;;;;21.30;32.90;;;;;;5033251;28;19931;-50
2023/12/09 01:55:03;;;;;;;;;;;21.30;32.90;;;;;;5033887;28;19968;-51
2023/12/09 01:57:30;;;;;;;;;;;21.30;32.90;;;;;;5033505;28;19929;-53
2023/12/09 01:59:57;;;;;;;;;;;21.30;32.90;;;;;;5033416;28;19929;-50
2023/12/09 02:02:24;;;;;;;;;;;21.30;32.90;;;;;;5033210;28;19925;-53
2023/12/09 02:04:53;;;;;;;;;;;21.30;32.90;;;;;;5033439;28;19932;-53
2023/12/09 02:07:19;;;;;;;;;;;21.30;32.80;;;;;;5033187;28;19971;-48
2023/12/09 02:09:47;;;;;;;;;;;21.30;32.80;;;;;;5023574;28;19932;-53
2023/12/09 02:12:17;;;;;;;;;;;21.30;32.90;;;;;;5013206;28;19925;-47
2023/12/09 02:14:49;;;;;;;;;;;21.30;32.80;;;;;;5013785;28;19968;-50
2023/12/09 02:17:22;;;;;;;;;;;21.30;32.80;;;;;;5013490;28;20360;-52
2023/12/09 02:19:49;;;;;;;;;;;21.30;32.80;;;;;;5013463;28;20395;-49
2023/12/09 02:22:16;;;;;;;;;;;21.30;32.80;;;;;;5026296;28;19971;-50
2023/12/09 02:24:43;;;;;;;;;;;21.30;32.80;;;;;;5033138;28;19929;-53
2023/12/09 02:27:14;;;;;;;;;;;21.30;32.90;;;;;;5033372;28;19983;-47
2023/12/09 02:29:49;;;;;;;;;;;21.30;32.80;;;;;;5033018;28;19925;-48
2023/12/09 02:32:19;;;;;;;;;;;21.30;32.80;;;;;;5015497;28;19925;-48
2023/12/09 02:34:47;;;;;;;;;;;21.30;32.80;;;;;;5032932;28;19983;-49
2023/12/09 02:37:15;;;;;;;;;;;21.30;32.80;;;;;;5032898;28;19925;-51
2023/12/09 02:39:42;;;;;;;;;;;21.30;32.80;;;;;;5032735;28;19925;-49
2023/12/09 02:42:09;;;;;;;;;;;21.30;32.80;;;;;;5033220;28;20346;-47
2023/12/09 02:44:36;;;;;;;;;;;21.30;32.80;;;;;;5033183;28;19925;-48
2023/12/09 02:47:04;;;;;;;;;;;21.30;32.80;;;;;;5032904;28;20438;-50
2023/12/09 02:49:30;;;;;;;;;;;21.30;32.80;;;;;;5033013;28;20293;-48
2023/12/09 02:51:58;;;;;;;;;;;21.30;32.80;;;;;;5032825;28;19926;-48
2023/12/09 02:54:25;;;;;;;;;;;21.30;32.80;;;;;;5032435;28;20016;-47
2023/12/09 02:56:52;;;;;;;;;;;21.30;32.80;;;;;;5035782;28;20350;-50
2023/12/09 02:59:19;;;;;;;;;;;21.30;32.80;;;;;;5036670;28;20363;-47
2023/12/09 03:01:46;;;;;;;;;;;21.30;32.80;;;;;;5036556;28;19932;-49
2023/12/09 03:04:13;;;;;;;;;;;21.30;32.80;;;;;;5036792;28;19971;-48
2023/12/09 03:06:41;;;;;;;;;;;21.30;32.80;;;;;;5036869;28;19932;-49
2023/12/09 03:09:08;;;;;;;;;;;21.30;32.80;;;;;;5036637;28;19983;-48
2023/12/09 03:11:35;;;;;;;;;;;21.30;32.70;;;;;;5036302;28;20433;-48
2023/12/09 03:14:02;;;;;;;;;;;21.30;32.70;;;;;;5036438;28;19947;-49
2023/12/09 03:16:29;;;;;;;;;;;21.30;32.70;;;;;;5036619;28;19972;-47
2023/12/09 03:18:56;;;;;;;;;;;21.30;32.70;;;;;;5036144;28;19956;-48
2023/12/09 03:21:23;;;;;;;;;;;21.30;32.70;;;;;;5036621;28;19962;-48
2023/12/09 03:23:50;;;;;;;;;;;21.30;32.70;;;;;;5036149;28;19925;-51
2023/12/09 03:26:18;;;;;;;;;;;21.30;32.70;;;;;;5036329;28;20314;-53
2023/12/09 03:28:45;;;;;;;;;;;21.30;32.70;;;;;;5036009;28;20406;-52
2023/12/09 03:31:13;;;;;;;;;;;21.30;32.70;;;;;;5036270;28;20305;-53
2023/12/09 03:33:40;;;;;;;;;;;21.30;32.70;;;;;;5035988;28;20015;-51
2023/12/09 03:36:08;;;;;;;;;;;21.30;32.70;;;;;;5035872;28;19925;-49
2023/12/09 03:38:35;;;;;;;;;;;21.30;32.70;;;;;;5036045;28;19925;-53
2023/12/09 03:41:04;;;;;;;;;;;21.20;32.60;;;;;;5035807;28;19925;-51
2023/12/09 03:43:31;;;;;;;;;;;21.30;32.60;;;;;;5035749;28;20420;-48
2023/12/09 03:45:59;;;;;;;;;;;21.30;32.60;;;;;;5036172;28;19957;-49
2023/12/09 03:48:28;;;;;;;;;;;21.30;32.70;;;;;;5035602;28;19960;-52
2023/12/09 03:50:55;;;;;;;;;;;21.30;32.60;;;;;;5035965;28;19925;-53
2023/12/09 03:53:22;;;;;;;;;;;21.30;32.70;;;;;;5035360;28;19925;-50
2023/12/09 03:55:50;;;;;;;;;;;21.30;32.60;;;;;;5035838;28;19925;-49
2023/12/09 03:58:17;;;;;;;;;;;21.30;32.60;;;;;;5035612;28;19932;-47
2023/12/09 04:00:44;;;;;;;;;;;21.30;32.70;;;;;;5035747;28;19936;-48
2023/12/09 04:03:12;;;;;;;;;;;21.30;32.60;;;;;;5035593;28;19925;-46
2023/12/09 04:05:40;;;;;;;;;;;21.30;32.60;;;;;;5035741;28;19929;-46
2023/12/09 04:08:07;;;;;;;;;;;21.30;32.60;;;;;;5035334;28;19932;-47
2023/12/09 04:10:34;;;;;;;;;;;21.30;32.60;;;;;;5035179;28;19940;-50
2023/12/09 04:13:01;;;;;;;;;;;21.30;32.60;;;;;;5035192;28;20374;-50
2023/12/09 04:15:28;;;;;;;;;;;21.30;32.60;;;;;;5035238;28;20469;-48
2023/12/09 04:17:55;;;;;;;;;;;21.30;32.60;;;;;;5034906;28;20459;-51
2023/12/09 04:20:23;;;;;;;;;;;21.30;32.60;;;;;;5034936;28;20025;-48
2023/12/09 04:22:50;;;;;;;;;;;21.30;32.60;;;;;;5034905;28;19925;-50
2023/12/09 04:25:17;;;;;;;;;;;21.30;32.60;;;;;;5035281;28;19931;-47
2023/12/09 04:27:44;;;;;;;;;;;21.30;32.60;;;;;;5035389;28;19925;-52
2023/12/09 04:30:12;;;;;;;;;;;21.30;32.60;;;;;;5035437;28;19925;-49
2023/12/09 04:32:39;;;;;;;;;;;21.30;32.60;;;;;;5035209;28;19932;-49
2023/12/09 04:35:06;;;;;;;;;;;21.30;32.60;;;;;;5035184;28;20003;-51
2023/12/09 04:37:33;;;;;;;;;;;21.30;32.60;;;;;;5034956;28;19925;-49
2023/12/09 04:40:00;;;;;;;;;;;21.30;32.40;;;;;;5034625;28;19971;-48
2023/12/09 04:42:28;;;;;;;;;;;21.30;32.80;;;;;;5034512;28;19925;-49
2023/12/09 04:44:55;;;;;;;;;;;21.30;32.20;;;;;;5034812;28;19971;-49
2023/12/09 04:47:22;;;;;;;;;;;21.30;32.20;;;;;;5034698;28;19933;-51
2023/12/09 04:49:49;;;;;;;;;;;21.30;32.20;;;;;;5034892;28;19926;-48
2023/12/09 04:52:17;;;;;;;;;;;21.30;32.20;;;;;;5034596;28;19925;-53
2023/12/09 04:54:43;;;;;;;;;;;21.30;32.10;;;;;;5034980;28;19925;-52
2023/12/09 04:57:10;;;;;;;;;;;21.30;32.10;;;;;;5034409;28;19987;-50
2023/12/09 04:59:37;;;;;;;;;;;21.30;32.00;;;;;;5034595;28;20016;-50
2023/12/09 05:02:04;;;;;;;;;;;21.40;32.10;;;;;;5034304;28;19929;-51
2023/12/09 05:04:31;;;;;;;;;;;21.40;32.00;;;;;;5034601;28;19972;-48
2023/12/09 05:06:58;;;;;;;;;;;21.40;32.00;;;;;;5034346;28;19964;-51
2023/12/09 05:09:25;;;;;;;;;;;21.50;31.90;;;;;;5034716;28;19925;-52
2023/12/09 05:11:52;;;;;;;;;;;21.50;31.80;;;;;;5034271;28;19925;-51
2023/12/09 05:14:19;;;;;;;;;;;21.60;31.80;;;;;;5034345;28;19979;-51
2023/12/09 05:16:46;;;;;;;;;;;21.60;31.70;;;;;;5034249;28;20011;-54
2023/12/09 05:19:13;;;;;;;;;;;21.70;31.60;;;;;;5033398;28;19925;-53
2023/12/09 05:21:41;;;;;;;;;;;21.80;31.50;;;;;;5034143;28;20336;-52
2023/12/09 05:24:08;;;;;;;;;;;21.80;31.40;;;;;;5033811;28;19925;-53
2023/12/09 05:26:35;;;;;;;;;;;21.90;31.40;;;;;;5034220;28;19933;-51
2023/12/09 05:29:03;;;;;;;;;;;21.90;31.30;;;;;;5033863;28;19931;-55
2023/12/09 05:31:30;;;;;;;;;;;22.00;31.30;;;;;;5033991;28;19926;-52
2023/12/09 05:33:57;;;;;;;;;;;22.00;31.20;;;;;;5033883;28;19952;-48
2023/12/09 05:36:24;;;;;;;;;;;22.10;31.20;;;;;;5033708;28;20345;-52
2023/12/09 05:38:51;;;;;;;;;;;22.10;31.10;;;;;;5033667;28;19925;-54
2023/12/09 05:41:18;;;;;;;;;;;22.20;31.00;;;;;;5033976;28;20409;-52
2023/12/09 05:43:45;;;;;;;;;;;22.20;31.00;;;;;;5033661;28;19929;-54
2023/12/09 05:46:21;;;;;;;;;;;22.30;31.00;;;;;;5033526;28;20028;-52
2023/12/09 05:48:49;;;;;;;;;;;22.30;30.90;;;;;;5033495;28;19925;-50
2023/12/09 05:51:16;;;;;;;;;;;22.40;30.90;;;;;;5033643;28;19932;-47
2023/12/09 05:53:43;;;;;;;;;;;22.40;30.80;;;;;;5033514;28;19925;-49
2023/12/09 05:56:11;;;;;;;;;;;22.40;30.80;;;;;;5033864;28;19933;-53
2023/12/09 05:58:39;;;;;;;;;;;22.40;30.70;;;;;;5033153;28;19955;-52
2023/12/09 06:01:06;;;;;;;;;;;22.40;31.30;;;;;;5033356;28;20390;-52
2023/12/09 06:03:33;;;;;;;;;;;22.50;30.70;;;;;;5033513;28;20286;-48
2023/12/09 06:06:01;;;;;;;;;;;22.50;30.70;;;;;;5027384;28;19976;-50
2023/12/09 06:08:28;;;;;;;;;;;22.50;30.60;;;;;;5007082;28;20120;-48
2023/12/09 06:10:55;;;;;;;;;;;22.50;30.60;;;;;;5002142;28;20000;-50
2023/12/09 06:13:22;;;;;;;;;;;22.60;30.60;;;;;;5013922;28;20008;-48
2023/12/09 06:15:49;;;;;;;;;;;22.60;30.50;;;;;;5013594;28;19956;-52
2023/12/09 06:18:17;;;;;;;;;;;22.60;30.50;;;;;;5013251;28;20379;-48
2023/12/09 06:20:44;;;;;;;;;;;22.70;30.50;;;;;;5013676;28;20019;-52
2023/12/09 06:23:11;;;;;;;;;;;22.60;30.40;;;;;;5013475;28;20298;-48
2023/12/09 06:25:38;;;;;;;;;;;22.70;30.40;;;;;;5013464;28;19926;-49
2023/12/09 06:28:05;;;;;;;;;;;22.70;30.40;;;;;;5012993;28;20024;-48
2023/12/09 06:30:33;;;;;;;;;;;22.70;30.40;;;;;;5015856;28;20284;-49
2023/12/09 06:33:00;;;;;;;;;;;22.70;30.30;;;;;;5016987;28;19926;-48
2023/12/09 06:35:27;;;;;;;;;;;22.80;30.30;;;;;;5010878;28;19933;-48
2023/12/09 06:37:54;;;;;;;;;;;22.80;30.30;;;;;;5016062;28;19925;-48
2023/12/09 06:40:23;;;;;;;;;;;22.80;30.20;;;;;;5017082;28;19925;-49
2023/12/09 06:42:50;;;;;;;;;;;22.80;30.20;;;;;;5017529;28;19926;-48
2023/12/09 06:45:17;;;;;;;;;;;22.80;30.20;;;;;;5017529;28;19933;-53
2023/12/09 06:47:44;;;;;;;;;;;22.80;30.10;;;;;;5016973;28;19925;-47
2023/12/09 06:50:11;;;;;;;;;;;22.90;30.20;;;;;;5016952;28;20394;-48
2023/12/09 06:52:39;;;;;;;;;;;22.90;30.20;;;;;;4999791;28;19931;-49
2023/12/09 06:55:07;;;;;;;;;;;22.90;30.20;;;;;;5016836;28;20020;-50
2023/12/09 06:57:34;;;;;;;;;;;23.00;30.10;;;;;;5016853;28;19977;-51
2023/12/09 07:00:07;;;;;;;;;;;23.00;30.10;;;;;;5017035;28;20382;-54
2023/12/09 07:02:34;;;;;;;;;;;23.00;30.00;;;;;;5016764;28;19933;-54
2023/12/09 07:05:19;;;;;;;;;;;23.00;30.00;;;;;;5017038;28;20341;-54
2023/12/09 07:07:48;;;;;;;;;;;23.00;30.00;;;;;;5016445;28;19934;-50
2023/12/09 07:10:16;;;;;;;;;;;23.10;30.00;;;;;;5016402;28;19929;-53
2023/12/09 07:12:43;;;;;;;;;;;23.10;30.00;;;;;;5016611;28;19969;-50
2023/12/09 07:15:12;;;;;;;;;;;23.10;29.90;;;;;;5016472;28;19925;-53
2023/12/09 07:17:39;;;;;;;;;;;23.10;29.90;;;;;;5016899;28;19925;-52
2023/12/09 07:20:07;;;;;;;;;;;23.20;29.90;;;;;;5016219;28;19932;-54
2023/12/09 07:22:34;;;;;;;;;;;23.20;29.90;;;;;;5016263;28;19980;-50
2023/12/09 07:25:01;;;;;;;;;;;23.20;29.90;;;;;;5016106;28;19980;-54
2023/12/09 07:27:28;;;;;;;;;;;23.30;29.90;;;;;;5016087;28;20019;-48
2023/12/09 07:29:54;;;;;;;;;;;23.30;29.90;;;;;;4998811;28;19975;-52
2023/12/09 07:32:22;;;;;;;;;;;23.30;29.80;;;;;;5015824;28;19932;-52
2023/12/09 07:34:49;;;;;;;;;;;23.30;29.80;;;;;;5016375;28;19925;-49
2023/12/09 07:37:17;;;;;;;;;;;23.40;29.80;;;;;;5015586;28;19925;-53
2023/12/09 07:39:44;;;;;;;;;;;23.40;29.70;;;;;;5019865;28;20015;-52
2023/12/09 07:42:11;;;;;;;;;;;23.40;29.70;;;;;;5035081;28;19968;-49
2023/12/09 07:44:38;;;;;;;;;;;23.40;29.70;;;;;;5035745;28;20009;-50
2023/12/09 07:47:05;;;;;;;;;;;23.50;29.70;;;;;;5035532;28;19926;-47
2023/12/09 07:49:32;;;;;;;;;;;23.50;29.70;;;;;;5035464;28;20370;-51
2023/12/09 07:51:59;;;;;;;;;;;23.50;29.60;;;;;;5018313;28;19932;-48
2023/12/09 07:54:27;;;;;;;;;;;23.50;29.60;;;;;;5021632;28;20334;-48
2023/12/09 07:56:54;;;;;;;;;;;23.60;29.60;;;;;;5015770;28;19973;-50
2023/12/09 07:59:21;;;;;;;;;;;23.60;29.60;;;;;;5015515;28;20370;-50
2023/12/09 08:01:48;;;;;;;;;;;23.60;29.50;;;;;;5015467;28;20404;-48
2023/12/09 08:04:15;;;;;;;;;;;23.70;29.50;;;;;;5015425;28;19955;-50
2023/12/09 08:06:42;;;;;;;;;;;23.70;29.50;;;;;;5015528;28;19926;-52
2023/12/09 08:09:09;;;;;;;;;;;23.70;29.50;;;;;;5015448;28;19925;-48
2023/12/09 08:11:36;;;;;;;;;;;23.70;29.50;;;;;;4998243;28;20298;-48
2023/12/09 08:14:03;;;;;;;;;;;23.80;29.40;;;;;;5015203;28;19931;-50
2023/12/09 08:16:31;;;;;;;;;;;23.80;29.30;;;;;;5015664;28;19929;-51
2023/12/09 08:18:58;;;;;;;;;;;23.90;29.40;;;;;;5016501;28;20348;-51
2023/12/09 08:21:25;;;;;;;;;;;23.90;29.30;;;;;;5027648;28;20330;-50
2023/12/09 08:23:54;;;;;;;;;;;24.00;29.30;;;;;;5014988;28;20314;-52
2023/12/09 08:26:21;;;;;;;;;;;24.00;29.30;;;;;;5015334;28;19929;-51
2023/12/09 08:28:48;;;;;;;;;;;24.00;29.20;;;;;;5014985;28;19979;-51
2023/12/09 08:31:15;;;;;;;;;;;24.10;29.20;;;;;;5015361;28;19925;-55
2023/12/09 08:33:42;;;;;;;;;;;24.10;29.20;;;;;;5015072;28;19965;-48
2023/12/09 08:36:09;;;;;;;;;;;24.10;29.20;;;;;;5015283;28;19965;-50
2023/12/09 08:38:36;;;;;;;;;;;24.10;29.10;;;;;;5014911;28;19929;-54
2023/12/09 08:41:03;;;;;;;;;;;24.10;29.10;;;;;;5015201;28;19972;-49
2023/12/09 08:43:30;;;;;;;;;;;24.20;29.10;;;;;;5014676;28;19932;-54
2023/12/09 08:45:57;;;;;;;;;;;24.20;29.00;;;;;;4996676;28;20004;-53
2023/12/09 08:48:24;;;;;;;;;;;24.20;29.00;;;;;;5014496;28;20004;-51
2023/12/09 08:50:52;;;;;;;;;;;24.20;29.00;;;;;;5015180;28;20020;-53
2023/12/09 08:53:19;;;;;;;;;;;24.20;29.00;;;;;;5013935;28;20387;-53
2023/12/09 08:55:46;;;;;;;;;;;24.20;28.90;;;;;;5014779;28;20479;-53
2023/12/09 08:58:13;;;;;;;;;;;24.30;28.90;;;;;;5014525;28;19925;-53
2023/12/09 09:00:40;;;;;;;;;;;24.30;28.90;;;;;;5014472;28;19925;-52
2023/12/09 09:03:08;;;;;;;;;;;24.30;28.90;;;;;;5014740;28;19979;-52
2023/12/09 09:05:35;;;;;;;;;;;24.30;29.00;;;;;;5014006;28;19935;-54
2023/12/09 09:08:03;;;;;;;;;;;24.40;29.00;;;;;;4997313;28;19925;-52
2023/12/09 09:10:30;;;;;;;;;;;24.40;28.90;;;;;;5014770;28;19971;-48
2023/12/09 09:12:57;;;;;;;;;;;24.40;28.90;;;;;;5014391;28;19929;-53
2023/12/09 09:15:24;;;;;;;;;;;24.50;28.90;;;;;;5014837;28;19980;-48
2023/12/09 09:17:51;;;;;;;;;;;24.50;28.90;;;;;;5014208;28;19925;-51
2023/12/09 09:20:18;;;;;;;;;;;24.50;28.80;;;;;;5014248;28;20375;-48
2023/12/09 09:22:46;;;;;;;;;;;24.50;29.20;;;;;;5014086;28;19932;-48
2023/12/09 09:25:15;;;;;;;;;;;24.60;28.80;;;;;;5014475;28;19925;-48
2023/12/09 09:27:42;;;;;;;;;;;24.60;28.70;;;;;;5014179;28;19926;-49
2023/12/09 09:30:09;;;;;;;;;;;24.70;28.70;;;;;;5014413;28;19925;-48
2023/12/09 09:32:37;;;;;;;;;;;24.70;28.70;;;;;;5013962;28;19930;-48
2023/12/09 09:35:04;;;;;;;;;;;24.70;28.60;;;;;;5014296;28;19925;-48
2023/12/09 09:37:31;;;;;;;;;;;24.70;28.60;;;;;;5013958;28;19925;-48
2023/12/09 09:39:58;;;;;;;;;;;24.80;28.60;;;;;;5013916;28;20466;-51
2023/12/09 09:42:30;;;;;;;;;;;24.80;28.60;;;;;;5013680;28;19926;-53
2023/12/09 09:45:14;;;;;;;;;;;24.80;28.50;;;;;;5014072;28;19965;-51
2023/12/09 09:47:42;;;;;;;;;;;24.80;28.50;;;;;;5014235;28;19925;-50
2023/12/09 09:50:10;;;;;;;;;;;24.80;28.50;;;;;;5000600;28;19933;-50
2023/12/09 09:52:40;;;;;;;;;;;24.90;28.60;;;;;;4994137;28;19926;-49
2023/12/09 09:55:08;;;;;;;;;;;24.90;28.60;;;;;;4993981;28;20409;-49
2023/12/09 09:57:35;;;;;;;;;;;24.90;28.50;;;;;;4994320;28;20005;-53
2023/12/09 10:00:06;;;;;;;;;;;24.90;28.50;;;;;;4994205;28;19926;-48
2023/12/09 10:02:35;;;;;;;;;;;24.90;28.50;;;;;;4997481;28;20334;-53
2023/12/09 10:05:03;;;;;;;;;;;24.90;28.50;;;;;;4994037;28;19973;-51
2023/12/09 10:07:30;;;;;;;;;;;25.00;28.50;;;;;;4997237;28;20290;-51
2023/12/09 10:09:58;;;;;;;;;;;25.00;28.40;;;;;;5033017;28;19951;-52
2023/12/09 10:12:26;;;;;;;;;;;25.00;28.50;;;;;;5033193;28;19968;-51
2023/12/09 10:14:53;;;;;;;;;;;25.00;28.40;;;;;;5033239;28;19925;-53
2023/12/09 10:17:21;;;;;;;;;;;25.10;28.40;;;;;;5033016;28;19929;-51
2023/12/09 10:19:48;;;;;;;;;;;25.10;28.40;;;;;;5033273;28;20008;-50
2023/12/09 10:22:15;;;;;;;;;;;25.10;28.40;;;;;;5032973;28;19929;-53
2023/12/09 10:24:49;;;;;;;;;;;25.10;28.40;;;;;;5033284;28;20020;-52
2023/12/09 10:27:18;;;;;;;;;;;25.10;28.40;;;;;;5032774;28;19936;-50
2023/12/09 10:29:45;;;;;;;;;;;25.10;28.40;;;;;;5011637;28;19932;-54
2023/12/09 10:32:13;;;;;;;;;;;25.10;28.40;;;;;;5011494;28;19929;-53
2023/12/09 10:34:41;;;;;;;;;;;25.10;28.30;;;;;;5013282;28;20286;-51
2023/12/09 10:37:08;;;;;;;;;;;25.10;28.30;;;;;;5013152;28;20383;-55
2023/12/09 10:39:35;;;;;;;;;;;25.10;28.30;;;;;;5013208;28;20012;-51
2023/12/09 10:42:03;;;;;;;;;;;25.20;28.30;;;;;;5021128;28;19926;-48
2023/12/09 10:44:30;;;;;;;;;;;25.20;28.30;;;;;;5032802;28;19932;-52
2023/12/09 10:46:57;;;;;;;;;;;25.20;28.30;;;;;;5032860;28;19929;-51
2023/12/09 10:49:24;;;;;;;;;;;25.20;28.30;;;;;;5032811;28;19971;-51
2023/12/09 10:51:52;;;;;;;;;;;25.30;28.30;;;;;;5032773;28;19925;-53
2023/12/09 10:54:18;;;;;;;;;;;25.30;28.30;;;;;;5022939;28;20009;-52
2023/12/09 10:56:46;;;;;;;;;;;25.30;28.20;;;;;;5013389;28;19929;-54
2023/12/09 10:59:13;;;;;;;;;;;25.30;28.20;;;;;;5013289;28;20359;-54
2023/12/09 11:01:40;;;;;;;;;;;25.30;28.20;;;;;;5013043;28;20426;-52
2023/12/09 11:04:08;;;;;;;;;;;25.40;28.20;;;;;;5012934;28;19933;-52
2023/12/09 11:06:36;;;;;;;;;;;25.40;28.20;;;;;;5012921;28;19925;-54
2023/12/09 11:09:05;;;;;;;;;;;25.40;28.20;;;;;;5013241;28;19996;-52
2023/12/09 11:11:32;;;;;;;;;;;25.40;28.20;;;;;;5013413;28;19926;-52
2023/12/09 11:13:59;;;;;;;;;;;25.40;28.20;;;;;;5012943;28;19932;-50
2023/12/09 11:16:27;;;;;;;;;;;25.40;28.30;;;;;;5013887;28;19948;-53
2023/12/09 11:18:55;;;;;;;;;;;25.40;28.30;;;;;;5016520;28;20012;-54
2023/12/09 11:21:25;;;;;;;;;;;25.40;28.20;;;;;;5020495;28;19968;-54
2023/12/09 11:23:53;;;;;;;;;;;25.40;28.20;;;;;;5035906;28;20267;-52
2023/12/09 11:26:29;;;;;;;;;;;25.40;28.20;;;;;;5032553;28;19984;-52
2023/12/09 11:29:03;;;;;;;;;;;25.30;28.20;;;;;;5014500;28;19926;-49
2023/12/09 11:31:44;;;;;;;;;;;25.40;28.20;;;;;;5013878;28;19932;-50
2023/12/09 11:34:13;;;;;;;;;;;25.40;28.20;;;;;;5015880;28;20298;-51
2023/12/09 11:36:41;;;;;;;;;;;25.40;28.20;;;;;;5015695;28;19929;-54
2023/12/09 11:39:11;;;;;;;;;;;25.40;28.20;;;;;;5016283;28;19979;-54
2023/12/09 11:41:39;;;;;;;;;;;25.40;28.20;;;;;;5006495;28;19968;-52
2023/12/09 11:44:07;;;;;;;;;;;25.40;28.20;;;;;;5016057;28;19925;-51
2023/12/09 11:46:35;;;;;;;;;;;25.40;28.20;;;;;;5015950;28;19952;-53
2023/12/09 11:49:03;;;;;;;;;;;25.40;28.20;;;;;;5015915;28;19926;-54
2023/12/09 11:51:32;;;;;;;;;;;25.40;28.20;;;;;;5015201;28;19925;-54
2023/12/09 11:54:00;;;;;;;;;;;25.40;28.20;;;;;;5015996;28;20287;-53
2023/12/09 11:56:27;;;;;;;;;;;25.40;28.20;;;;;;5015934;28;20375;-50
2023/12/09 11:58:55;;;;;;;;;;;25.40;28.20;;;;;;5015495;28;19930;-52
2023/12/09 12:01:22;;;;;;;;;;;25.40;28.20;;;;;;5015943;28;19925;-51
2023/12/09 12:03:49;;;;;;;;;;;25.40;28.20;;;;;;5015784;28;19948;-53
2023/12/09 12:06:17;;;;;;;;;;;25.40;28.20;;;;;;5027419;28;20016;-53
2023/12/09 12:08:46;;;;;;;;;;;25.40;28.20;;;;;;5035550;28;19963;-54
2023/12/09 12:11:14;;;;;;;;;;;25.40;28.20;;;;;;5034898;28;19925;-53
2023/12/09 12:13:41;;;;;;;;;;;25.40;28.20;;;;;;5035415;28;19925;-50
2023/12/09 12:16:09;;;;;;;;;;;25.40;28.20;;;;;;5022999;28;19929;-54
2023/12/09 12:18:36;;;;;;;;;;;25.40;28.20;;;;;;5005535;28;19934;-52
2023/12/09 12:21:05;;;;;;;;;;;25.40;28.10;;;;;;5014911;28;19926;-54
2023/12/09 12:23:32;;;;;;;;;;;25.40;28.10;;;;;;5015141;28;19925;-53
2023/12/09 12:26:00;;;;;;;;;;;25.40;28.20;;;;;;5015347;28;19992;-53
2023/12/09 12:28:27;;;;;;;;;;;25.40;28.20;;;;;;5014882;28;19980;-53
2023/12/09 12:30:54;;;;;;;;;;;25.40;28.20;;;;;;4999999;28;19933;-53
2023/12/09 12:33:22;;;;;;;;;;;25.40;28.20;;;;;;5000380;28;19972;-52
2023/12/09 12:35:50;;;;;;;;;;;25.30;28.20;;;;;;5003024;28;20009;-56
2023/12/09 12:38:17;;;;;;;;;;;25.30;28.20;;;;;;5002555;28;19925;-53
2023/12/09 12:40:44;;;;;;;;;;;25.30;28.20;;;;;;5000770;28;19972;-53
2023/12/09 12:43:13;;;;;;;;;;;25.30;28.20;;;;;;4995510;28;20012;-56
2023/12/09 12:45:41;;;;;;;;;;;25.30;28.30;;;;;;4995122;28;19937;-49
2023/12/09 12:48:08;;;;;;;;;;;25.30;28.20;;;;;;4995186;28;19926;-53
2023/12/09 12:50:35;;;;;;;;;;;25.30;28.30;;;;;;4995100;28;19993;-53
2023/12/09 12:53:02;;;;;;;;;;;25.30;28.30;;;;;;4995351;28;19932;-53
2023/12/09 12:55:29;;;;;;;;;;;25.30;28.30;;;;;;4995017;28;19930;-50
2023/12/09 12:57:56;;;;;;;;;;;25.30;28.30;;;;;;4995047;28;19925;-57
2023/12/09 13:00:24;;;;;;;;;;;25.30;28.30;;;;;;4995131;28;19925;-58
2023/12/09 13:02:51;;;;;;;;;;;25.30;28.30;;;;;;4994710;28;19936;-53
2023/12/09 13:05:18;;;;;;;;;;;25.30;28.30;;;;;;4995017;28;20175;-53
2023/12/09 13:07:45;;;;;;;;;;;25.30;28.20;;;;;;4994752;28;19926;-56
2023/12/09 13:10:12;;;;;;;;;;;25.30;28.30;;;;;;4994387;28;19932;-56
2023/12/09 13:12:40;;;;;;;;;;;25.30;28.30;;;;;;5013791;28;19972;-52
2023/12/09 13:15:08;;;;;;;;;;;25.30;28.30;;;;;;5014428;28;19933;-57
2023/12/09 13:17:35;;;;;;;;;;;25.30;28.30;;;;;;5014509;28;19957;-55
2023/12/09 13:20:03;;;;;;;;;;;25.30;28.30;;;;;;5014284;28;19925;-55
2023/12/09 13:22:30;;;;;;;;;;;25.30;28.20;;;;;;5013720;28;19948;-54
2023/12/09 13:24:57;;;;;;;;;;;25.30;28.20;;;;;;5014046;28;19933;-56
2023/12/09 13:27:24;;;;;;;;;;;25.30;28.20;;;;;;5014324;28;19964;-57
2023/12/09 13:29:51;;;;;;;;;;;25.30;28.20;;;;;;5014234;28;19988;-56
2023/12/09 13:32:18;;;;;;;;;;;25.30;28.20;;;;;;4998683;28;19932;-54
2023/12/09 13:34:45;;;;;;;;;;;25.30;28.20;;;;;;4994451;28;19936;-53
2023/12/09 13:37:13;;;;;;;;;;;25.30;28.10;;;;;;4994575;28;20036;-56
2023/12/09 13:39:40;;;;;;;;;;;25.30;28.20;;;;;;5005109;28;19995;-53
2023/12/09 13:42:07;;;;;;;;;;;25.30;28.20;;;;;;5012804;28;20338;-54
2023/12/09 13:44:34;;;;;;;;;;;25.20;28.10;;;;;;5011816;28;19972;-56
2023/12/09 13:47:05;;;;;;;;;;;25.20;28.10;;;;;;5016110;28;19932;-58
2023/12/09 13:49:32;;;;;;;;;;;25.20;28.20;;;;;;4994659;28;19973;-52
2023/12/09 13:51:59;;;;;;;;;;;25.20;28.20;;;;;;4994332;28;20284;-53
2023/12/09 13:54:27;;;;;;;;;;;25.20;28.20;;;;;;4993976;28;19957;-54
2023/12/09 13:56:54;;;;;;;;;;;25.20;28.20;;;;;;4993879;28;19929;-56
2023/12/09 13:59:21;;;;;;;;;;;25.20;28.20;;;;;;4994047;28;19926;-58
2023/12/09 14:01:49;;;;;;;;;;;25.10;28.20;;;;;;4994579;28;20016;-54
2023/12/09 14:04:16;;;;;;;;;;;25.20;28.20;;;;;;4994292;28;19976;-57
2023/12/09 14:06:43;;;;;;;;;;;25.10;28.20;;;;;;4993991;28;19933;-59
2023/12/09 14:09:12;;;;;;;;;;;25.10;28.20;;;;;;4998871;28;19979;-51
2023/12/09 14:11:42;;;;;;;;;;;25.10;28.20;;;;;;5013899;28;19930;-48
2023/12/09 14:14:10;;;;;;;;;;;25.10;28.20;;;;;;5013705;28;19975;-47
2023/12/09 14:16:37;;;;;;;;;;;25.10;28.20;;;;;;5013389;28;20346;-51
2023/12/09 14:19:04;;;;;;;;;;;25.10;28.20;;;;;;5013787;28;20284;-53